| time (UTC) | temp C | wind direction | speed KPH | gust KPH | rain 1hr cm | rain 24hr cm | rain mn cm | humidity % | barometer mb |
| 20260831082015 | 20 | 158 | 4.8 | 9.7 | 0.00 | 0.43 | 0.00 | 94 | 1011.4 |
| 20260831081016 | 20 | 158 | 4.8 | 9.7 | 0.00 | 0.43 | 0.00 | 94 | 1011.5 |
| 20260831080015 | 20 | 158 | 3.2 | 6.4 | 0.00 | 0.43 | 0.00 | 93 | 1011.5 |
| 20260831075017 | 20 | 135 | 4.8 | 12.9 | 0.00 | 0.43 | 0.00 | 93 | 1011.5 |
| 20260831074017 | 21 | 135 | 4.8 | 8.0 | 0.00 | 0.43 | 0.00 | 93 | 1011.5 |
| 20260831073015 | 21 | 158 | 4.8 | 8.0 | 0.00 | 0.43 | 0.00 | 93 | 1011.6 |
| 20260831072036 | 21 | 135 | 4.8 | 9.7 | 0.00 | 0.43 | 0.00 | 93 | 1011.7 |
| 20260831071015 | 21 | 135 | 4.8 | 12.9 | 0.00 | 0.43 | 0.00 | 92 | 1011.7 |
| 20260831070015 | 21 | 158 | 4.8 | 9.7 | 0.00 | 0.43 | 0.00 | 92 | 1012.0 |
| 20260831065015 | 21 | 180 | 6.4 | 14.5 | 0.00 | 0.43 | 0.00 | 92 | 1012.0 |
| 20260831064015 | 21 | 158 | 6.4 | 11.3 | 0.00 | 0.43 | 0.00 | 92 | 1012.2 |
| 20260831063017 | 21 | 158 | 8.0 | 16.1 | 0.00 | 0.43 | 0.00 | 92 | 1012.3 |
| 20260831062015 | 21 | 135 | 8.0 | 19.3 | 0.00 | 0.43 | 0.00 | 92 | 1012.5 |
| 20260831061015 | 21 | 135 | 6.4 | 14.5 | 0.00 | 0.43 | 0.00 | 92 | 1012.7 |
| 20260831060015 | 21 | 158 | 8.0 | 17.7 | 0.00 | 0.43 | 0.00 | 92 | 1012.7 |
| 20260831055015 | 21 | 158 | 6.4 | 16.1 | 0.00 | 0.43 | 0.00 | 92 | 1012.7 |
| 20260831054017 | 21 | 135 | 8.0 | 17.7 | 0.00 | 0.43 | 0.00 | 92 | 1012.7 |
| 20260831053015 | 20 | 135 | 8.0 | 14.5 | 0.00 | 0.43 | 0.00 | 93 | 1012.8 |
| 20260831052015 | 20 | 135 | 6.4 | 9.7 | 0.00 | 0.43 | 0.00 | 93 | 1012.9 |
| 20260831051015 | 20 | 135 | 6.4 | 14.5 | 0.00 | 0.43 | 0.00 | 93 | 1013.0 |
| 20260831050015 | 20 | 135 | 6.4 | 12.9 | 0.00 | 0.43 | 0.43 | 93 | 1013.0 |
| 20260831045016 | 20 | 135 | 6.4 | 11.3 | 0.00 | 0.43 | 0.43 | 93 | 1013.1 |
| 20260831044016 | 20 | 135 | 9.7 | 16.1 | 0.00 | 0.43 | 0.43 | 94 | 1013.1 |
| 20260831043016 | 20 | 135 | 8.0 | 14.5 | 0.00 | 0.43 | 0.43 | 95 | 1013.2 |
| 20260831042016 | 20 | 135 | 9.7 | 14.5 | 0.00 | 0.43 | 0.43 | 96 | 1013.2 |
| 20260831041016 | 20 | 135 | 6.4 | 11.3 | 0.00 | 0.43 | 0.43 | 96 | 1013.3 |
| 20260831040016 | 20 | 113 | 6.4 | 12.9 | 0.00 | 0.43 | 0.43 | 96 | 1013.5 |
| 20260831035156 | 20 | 113 | 6.4 | 12.9 | 0.00 | 0.43 | 0.43 | 96 | 1013.7 |
| 20260831034016 | 20 | 113 | 4.8 | 9.7 | 0.00 | 0.43 | 0.43 | 96 | 1013.7 |
| 20260831033016 | 20 | 113 | 8.0 | 11.3 | 0.00 | 0.43 | 0.43 | 96 | 1013.8 |
| 20260831032016 | 20 | 113 | 4.8 | 11.3 | 0.00 | 0.43 | 0.43 | 96 | 1014.1 |
| 20260831031016 | 20 | 113 | 4.8 | 9.7 | 0.00 | 0.43 | 0.43 | 95 | 1014.1 |
| 20260831030016 | 20 | 90 | 1.6 | 4.8 | 0.00 | 0.43 | 0.43 | 95 | 1014.4 |
| 20260831025016 | 20 | 0.0 | 0.0 | 0.00 | 0.43 | 0.43 | 95 | 1014.4 | |
| 20260831024017 | 20 | 0.0 | 0.0 | 0.00 | 0.43 | 0.43 | 95 | 1014.3 | |
| 20260831023016 | 20 | 0.0 | 0.0 | 0.00 | 0.43 | 0.43 | 94 | 1014.4 | |
| 20260831022016 | 20 | 0.0 | 0.0 | 0.00 | 0.43 | 0.43 | 94 | 1014.4 | |
| 20260831021016 | 21 | 0.0 | 0.0 | 0.00 | 0.43 | 0.43 | 94 | 1014.2 | |
| 20260831020017 | 21 | 0.0 | 3.2 | 0.00 | 0.43 | 0.43 | 94 | 1014.0 | |
| 20260831015016 | 21 | 225 | 1.6 | 4.8 | 0.00 | 0.43 | 0.43 | 94 | 1013.8 |
| 20260831014016 | 21 | 270 | 3.2 | 6.4 | 0.00 | 0.43 | 0.43 | 94 | 1013.7 |
| 20260831013016 | 21 | 270 | 1.6 | 4.8 | 0.00 | 0.43 | 0.43 | 94 | 1013.4 |
| 20260831012016 | 21 | 270 | 3.2 | 9.7 | 0.00 | 0.43 | 0.43 | 94 | 1013.3 |
| 20260831011036 | 21 | 248 | 4.8 | 11.3 | 0.00 | 0.43 | 0.43 | 94 | 1013.2 |
| 20260831010016 | 21 | 248 | 3.2 | 8.0 | 0.41 | 0.43 | 0.43 | 94 | 1012.6 |
| 20260831005036 | 21 | 248 | 8.0 | 14.5 | 0.43 | 0.43 | 0.43 | 94 | 1012.4 |
| 20260831004015 | 21 | 225 | 8.0 | 16.1 | 0.43 | 0.43 | 0.43 | 94 | 1012.2 |
| 20260831003016 | 21 | 180 | 3.2 | 8.0 | 0.43 | 0.43 | 0.43 | 94 | 1011.8 |
| 20260831002036 | 21 | 45 | 1.6 | 6.4 | 0.43 | 0.43 | 0.43 | 93 | 1011.4 |
| 20260831001016 | 22 | 338 | 4.8 | 14.5 | 0.43 | 0.43 | 0.43 | 92 | 1011.8 |
| 20260831000016 | 22 | 135 | 9.7 | 17.7 | 0.03 | 0.03 | 0.00 | 90 | 1011.5 |
| 20260830235015 | 22 | 135 | 9.7 | 17.7 | 0.00 | 0.00 | 0.00 | 90 | 1011.5 |
| 20260830234016 | 22 | 135 | 3.2 | 11.3 | 0.00 | 0.00 | 0.00 | 89 | 1012.4 |
| 20260830233016 | 23 | 158 | 1.6 | 8.0 | 0.00 | 0.00 | 0.00 | 88 | 1012.4 |
| 20260830232015 | 23 | 135 | 4.8 | 9.7 | 0.00 | 0.00 | 0.00 | 87 | 1012.2 |
| 20260830231035 | 23 | 135 | 4.8 | 12.9 | 0.00 | 0.00 | 0.00 | 87 | 1012.1 |
| 20260830230035 | 23 | 135 | 4.8 | 8.0 | 0.00 | 0.00 | 0.00 | 87 | 1012.1 |
| 20260830225015 | 23 | 135 | 3.2 | 8.0 | 0.00 | 0.00 | 0.00 | 86 | 1012.3 |
| 20260830224017 | 23 | 158 | 4.8 | 11.3 | 0.00 | 0.00 | 0.00 | 85 | 1012.4 |
| 20260830223036 | 24 | 180 | 4.8 | 14.5 | 0.00 | 0.00 | 0.00 | 84 | 1012.5 |
| 20260830222015 | 24 | 158 | 4.8 | 12.9 | 0.00 | 0.00 | 0.00 | 84 | 1012.2 |
| 20260830221015 | 25 | 158 | 4.8 | 12.9 | 0.00 | 0.00 | 0.00 | 83 | 1012.3 |
| 20260830220016 | 25 | 180 | 6.4 | 14.5 | 0.00 | 0.00 | 0.00 | 82 | 1012.1 |
| 20260830215015 | 25 | 180 | 3.2 | 8.0 | 0.00 | 0.00 | 0.00 | 81 | 1012.0 |
| 20260830214017 | 26 | 180 | 4.8 | 12.9 | 0.00 | 0.00 | 0.00 | 79 | 1012.0 |
| 20260830213015 | 26 | 225 | 1.6 | 12.9 | 0.00 | 0.00 | 0.00 | 79 | 1012.0 |
| 20260830212016 | 26 | 203 | 3.2 | 9.7 | 0.00 | 0.00 | 0.00 | 78 | 1012.2 |
| 20260830211035 | 26 | 203 | 4.8 | 11.3 | 0.00 | 0.00 | 0.00 | 77 | 1012.4 |
| 20260830210015 | 26 | 180 | 4.8 | 12.9 | 0.00 | 0.00 | 0.00 | 78 | 1012.7 |
| 20260830205015 | 26 | 158 | 3.2 | 9.7 | 0.00 | 0.00 | 0.00 | 79 | 1012.7 |
| 20260830204035 | 26 | 248 | 1.6 | 8.0 | 0.00 | 0.00 | 0.00 | 81 | 1012.6 |
| 20260830203037 | 26 | 225 | 4.8 | 12.9 | 0.00 | 0.00 | 0.00 | 78 | 1012.6 |
| 20260830202015 | 26 | 225 | 4.8 | 12.9 | 0.00 | 0.00 | 0.00 | 78 | 1013.0 |
| 20260830201015 | 26 | 248 | 3.2 | 9.7 | 0.00 | 0.00 | 0.00 | 80 | 1012.9 |
| 20260830200035 | 25 | 248 | 4.8 | 12.9 | 0.00 | 0.00 | 0.00 | 81 | 1012.7 |
| 20260830195015 | 25 | 225 | 4.8 | 11.3 | 0.00 | 0.00 | 0.00 | 82 | 1012.5 |
| 20260830194015 | 25 | 225 | 6.4 | 17.7 | 0.00 | 0.00 | 0.00 | 80 | 1012.7 |
| 20260830193035 | 25 | 180 | 3.2 | 12.9 | 0.00 | 0.00 | 0.00 | 80 | 1012.5 |
| 20260830192017 | 25 | 158 | 4.8 | 16.1 | 0.00 | 0.00 | 0.00 | 80 | 1012.3 |
| 20260830191039 | 25 | 180 | 3.2 | 9.7 | 0.00 | 0.00 | 0.00 | 81 | 1012.2 |
| 20260830190017 | 25 | 158 | 4.8 | 11.3 | 0.00 | 0.00 | 0.00 | 81 | 1012.3 |
| 20260830185017 | 24 | 180 | 3.2 | 11.3 | 0.00 | 0.00 | 0.00 | 83 | 1012.6 |
| 20260830184039 | 24 | 158 | 4.8 | 12.9 | 0.00 | 0.00 | 0.00 | 81 | 1012.7 |
| 20260830183037 | 24 | 135 | 1.6 | 9.7 | 0.00 | 0.00 | 0.00 | 82 | 1012.8 |
| 20260830182017 | 24 | 158 | 4.8 | 11.3 | 0.00 | 0.00 | 0.00 | 81 | 1012.9 |
| 20260830181017 | 24 | 180 | 1.6 | 9.7 | 0.00 | 0.00 | 0.00 | 81 | 1012.9 |
| 20260830180017 | 24 | 158 | 4.8 | 9.7 | 0.00 | 0.05 | 0.00 | 81 | 1013.2 |
| 20260830175017 | 24 | 180 | 4.8 | 16.1 | 0.00 | 0.13 | 0.00 | 80 | 1013.2 |
| 20260830174019 | 23 | 225 | 3.2 | 9.7 | 0.00 | 0.13 | 0.00 | 82 | 1013.4 |
| 20260830173017 | 23 | 225 | 3.2 | 11.3 | 0.00 | 0.13 | 0.00 | 81 | 1013.6 |
| 20260830172017 | 23 | 225 | 8.0 | 17.7 | 0.00 | 0.13 | 0.00 | 80 | 1013.8 |
| 20260830171038 | 24 | 225 | 3.2 | 16.1 | 0.00 | 0.15 | 0.00 | 80 | 1013.7 |
| 20260830170017 | 24 | 225 | 4.8 | 12.9 | 0.00 | 0.15 | 0.00 | 78 | 1013.4 |
| 20260830165017 | 25 | 180 | 4.8 | 14.5 | 0.00 | 0.15 | 0.00 | 77 | 1013.1 |
| 20260830164017 | 25 | 225 | 3.2 | 11.3 | 0.00 | 0.15 | 0.00 | 78 | 1013.1 |
| 20260830163017 | 25 | 203 | 1.6 | 8.0 | 0.00 | 0.15 | 0.00 | 78 | 1012.4 |
| 20260830162017 | 25 | 180 | 3.2 | 9.7 | 0.00 | 0.15 | 0.00 | 76 | 1012.2 |
| 20260830161017 | 25 | 180 | 3.2 | 12.9 | 0.00 | 0.15 | 0.00 | 74 | 1012.3 |
| 20260830160017 | 25 | 203 | 3.2 | 12.9 | 0.00 | 0.15 | 0.00 | 74 | 1012.3 |
| 20260830155017 | 25 | 225 | 3.2 | 17.7 | 0.00 | 0.15 | 0.00 | 75 | 1012.3 |
| 20260830154017 | 26 | 180 | 6.4 | 17.7 | 0.00 | 0.15 | 0.00 | 75 | 1012.1 |
| 20260830153017 | 25 | 203 | 4.8 | 12.9 | 0.00 | 0.15 | 0.00 | 74 | 1012.2 |
| 20260830152018 | 25 | 180 | 6.4 | 14.5 | 0.00 | 0.15 | 0.00 | 75 | 1012.3 |
| 20260830151017 | 25 | 180 | 4.8 | 9.7 | 0.00 | 0.15 | 0.00 | 76 | 1012.3 |
| 20260830150017 | 25 | 203 | 4.8 | 16.1 | 0.00 | 0.15 | 0.00 | 77 | 1012.4 |
| 20260830145017 | 24 | 180 | 6.4 | 11.3 | 0.00 | 0.15 | 0.00 | 77 | 1012.3 |
| 20260830144017 | 24 | 203 | 6.4 | 17.7 | 0.00 | 0.15 | 0.00 | 78 | 1012.0 |
| 20260830143037 | 24 | 180 | 8.0 | 14.5 | 0.00 | 0.15 | 0.00 | 79 | 1012.1 |
| 20260830142017 | 23 | 180 | 6.4 | 17.7 | 0.00 | 0.15 | 0.00 | 80 | 1012.1 |
| 20260830141016 | 23 | 180 | 6.4 | 14.5 | 0.00 | 0.15 | 0.00 | 80 | 1012.2 |
| 20260830140017 | 23 | 158 | 3.2 | 9.7 | 0.00 | 0.18 | 0.00 | 82 | 1012.1 |
| 20260830135017 | 22 | 158 | 3.2 | 6.4 | 0.00 | 0.20 | 0.00 | 83 | 1011.9 |
| 20260830134017 | 22 | 158 | 6.4 | 12.9 | 0.00 | 0.23 | 0.00 | 83 | 1011.7 |
| 20260830133017 | 22 | 158 | 1.6 | 6.4 | 0.00 | 0.23 | 0.00 | 85 | 1012.0 |
| 20260830132019 | 21 | 158 | 6.4 | 11.3 | 0.00 | 0.25 | 0.00 | 85 | 1011.9 |
| 20260830131016 | 21 | 158 | 4.8 | 8.0 | 0.00 | 0.28 | 0.00 | 86 | 1011.9 |
| 20260830130017 | 21 | 158 | 8.0 | 14.5 | 0.00 | 0.30 | 0.00 | 86 | 1011.9 |
| 20260830125037 | 20 | 158 | 8.0 | 14.5 | 0.00 | 0.33 | 0.00 | 87 | 1011.8 |
| 20260830124017 | 20 | 158 | 4.8 | 9.7 | 0.00 | 0.33 | 0.00 | 90 | 1012.0 |
| 20260830123017 | 20 | 158 | 4.8 | 8.0 | 0.00 | 0.36 | 0.00 | 90 | 1012.0 |
| 20260830122036 | 20 | 158 | 3.2 | 8.0 | 0.00 | 0.38 | 0.00 | 90 | 1012.0 |
| 20260830121036 | 19 | 158 | 3.2 | 9.7 | 0.00 | 0.38 | 0.00 | 91 | 1012.0 |
| 20260830120037 | 19 | 158 | 3.2 | 8.0 | 0.00 | 0.38 | 0.00 | 92 | 1012.1 |
| 20260830115018 | 18 | 135 | 4.8 | 8.0 | 0.00 | 0.38 | 0.00 | 93 | 1011.7 |
| 20260830114018 | 18 | 180 | 4.8 | 9.7 | 0.00 | 0.38 | 0.00 | 93 | 1012.0 |
| 20260830113016 | 18 | 158 | 3.2 | 8.0 | 0.00 | 0.38 | 0.00 | 93 | 1012.0 |
| 20260830112017 | 18 | 158 | 3.2 | 8.0 | 0.00 | 0.38 | 0.00 | 94 | 1011.9 |
| 20260830111037 | 18 | 158 | 4.8 | 8.0 | 0.00 | 0.38 | 0.00 | 94 | 1011.8 |
| 20260830110016 | 18 | 180 | 3.2 | 6.4 | 0.00 | 0.38 | 0.00 | 95 | 1012.0 |
| 20260830105016 | 18 | 158 | 4.8 | 11.3 | 0.00 | 0.38 | 0.00 | 95 | 1011.9 |
| 20260830104016 | 18 | 158 | 4.8 | 9.7 | 0.00 | 0.38 | 0.00 | 95 | 1011.8 |
| 20260830103016 | 18 | 158 | 4.8 | 8.0 | 0.00 | 0.38 | 0.00 | 95 | 1012.0 |
| 20260830102016 | 18 | 158 | 6.4 | 9.7 | 0.00 | 0.38 | 0.00 | 95 | 1012.0 |
| 20260830101016 | 18 | 158 | 4.8 | 9.7 | 0.00 | 0.38 | 0.00 | 95 | 1012.1 |
| 20260830100016 | 18 | 135 | 4.8 | 8.0 | 0.00 | 0.38 | 0.00 | 94 | 1012.2 |
| 20260830095016 | 18 | 135 | 6.4 | 8.0 | 0.00 | 0.38 | 0.00 | 94 | 1012.1 |
| 20260830094036 | 18 | 135 | 6.4 | 8.0 | 0.00 | 0.38 | 0.00 | 94 | 1012.2 |
| 20260830093016 | 18 | 135 | 4.8 | 6.4 | 0.00 | 0.38 | 0.00 | 94 | 1012.4 |
| 20260830092016 | 18 | 135 | 1.6 | 4.8 | 0.00 | 0.38 | 0.00 | 94 | 1012.4 |
| 20260830091017 | 19 | 0.0 | 4.8 | 0.00 | 0.38 | 0.00 | 93 | 1012.5 | |
| 20260830090036 | 19 | 113 | 1.6 | 4.8 | 0.00 | 0.38 | 0.00 | 93 | 1012.6 |
| 20260830085016 | 19 | 0.0 | 0.0 | 0.00 | 0.38 | 0.00 | 93 | 1012.6 | |
| 20260830084018 | 19 | 0.0 | 0.0 | 0.00 | 0.38 | 0.00 | 93 | 1012.6 | |
| 20260830083016 | 19 | 135 | 3.2 | 4.8 | 0.00 | 0.38 | 0.00 | 93 | 1012.5 |